sensor_id;sensor_type;location;lat;lon;timestamp;pressure;altitude;pressure_sealevel;temperature;humidity
6393;BME280;3229;42.674;23.282;2022-12-29T00:02:19;95534.88;;;10.32;68.81
6393;BME280;3229;42.674;23.282;2022-12-29T00:04:46;95546.63;;;10.34;68.51
6393;BME280;3229;42.674;23.282;2022-12-29T00:07:14;95538.97;;;10.34;68.74
6393;BME280;3229;42.674;23.282;2022-12-29T00:09:41;95544.75;;;10.36;68.66
6393;BME280;3229;42.674;23.282;2022-12-29T00:12:08;95545.59;;;10.37;68.80
6393;BME280;3229;42.674;23.282;2022-12-29T00:14:35;95545.47;;;10.38;68.80
6393;BME280;3229;42.674;23.282;2022-12-29T00:17:19;95546.16;;;10.40;68.78
6393;BME280;3229;42.674;23.282;2022-12-29T00:19:46;95541.03;;;10.40;68.53
6393;BME280;3229;42.674;23.282;2022-12-29T00:22:31;95540.94;;;10.42;68.71
6393;BME280;3229;42.674;23.282;2022-12-29T00:25:15;95546.88;;;10.42;68.60
6393;BME280;3229;42.674;23.282;2022-12-29T00:27:59;95511.38;;;10.15;68.80
6393;BME280;3229;42.674;23.282;2022-12-29T00:30:43;95547.69;;;10.43;68.56
6393;BME280;3229;42.674;23.282;2022-12-29T00:33:29;95551.16;;;10.42;68.82
6393;BME280;3229;42.674;23.282;2022-12-29T00:36:16;95557.09;;;10.42;68.73
6393;BME280;3229;42.674;23.282;2022-12-29T00:38:48;95554.41;;;10.44;68.65
6393;BME280;3229;42.674;23.282;2022-12-29T00:41:33;95559.66;;;10.42;68.74
6393;BME280;3229;42.674;23.282;2022-12-29T00:44:17;95570.69;;;10.43;68.57
6393;BME280;3229;42.674;23.282;2022-12-29T00:46:44;95569.06;;;10.42;68.62
6393;BME280;3229;42.674;23.282;2022-12-29T00:49:12;95574.19;;;10.42;68.79
6393;BME280;3229;42.674;23.282;2022-12-29T00:51:57;95569.06;;;10.42;68.87
6393;BME280;3229;42.674;23.282;2022-12-29T00:54:26;95570.69;;;10.43;68.93
6393;BME280;3229;42.674;23.282;2022-12-29T00:56:53;95567.31;;;10.42;68.82
6393;BME280;3229;42.674;23.282;2022-12-29T00:59:20;95569.16;;;10.40;68.83
6393;BME280;3229;42.674;23.282;2022-12-29T01:01:49;95569.88;;;10.42;68.84
6393;BME280;3229;42.674;23.282;2022-12-29T01:04:17;95567.31;;;10.42;68.84
6393;BME280;3229;42.674;23.282;2022-12-29T01:06:43;95564.78;;;10.42;68.78
6393;BME280;3229;42.674;23.282;2022-12-29T01:09:11;95563.03;;;10.43;68.75
6393;BME280;3229;42.674;23.282;2022-12-29T01:11:57;95563.16;;;10.41;68.91
6393;BME280;3229;42.674;23.282;2022-12-29T01:14:24;95563.25;;;10.40;68.72
6393;BME280;3229;42.674;23.282;2022-12-29T01:16:51;95556.38;;;10.40;68.71
6393;BME280;3229;42.674;23.282;2022-12-29T01:19:18;95559.88;;;10.39;68.90
6393;BME280;3229;42.674;23.282;2022-12-29T01:21:46;95552.34;;;10.38;68.79
6393;BME280;3229;42.674;23.282;2022-12-29T01:24:13;95556.63;;;10.37;68.79
6393;BME280;3229;42.674;23.282;2022-12-29T01:26:40;95554.06;;;10.37;68.86
6393;BME280;3229;42.674;23.282;2022-12-29T01:29:09;95531.34;;;10.21;68.80
6393;BME280;3229;42.674;23.282;2022-12-29T01:31:36;95553.34;;;10.35;68.98
6393;BME280;3229;42.674;23.282;2022-12-29T01:34:03;95543.13;;;10.35;68.80
6393;BME280;3229;42.674;23.282;2022-12-29T01:36:30;95541.38;;;10.36;68.72
6393;BME280;3229;42.674;23.282;2022-12-29T01:38:56;95520.31;;;10.21;68.92
6393;BME280;3229;42.674;23.282;2022-12-29T01:41:23;95535.59;;;10.34;68.71
6393;BME280;3229;42.674;23.282;2022-12-29T01:43:51;95531.28;;;10.34;68.89
6393;BME280;3229;42.674;23.282;2022-12-29T01:46:25;95533.97;;;10.33;68.84
6393;BME280;3229;42.674;23.282;2022-12-29T01:48:57;95527.34;;;10.30;68.79
6393;BME280;3229;42.674;23.282;2022-12-29T01:51:29;95527.34;;;10.30;68.99
6393;BME280;3229;42.674;23.282;2022-12-29T01:53:58;95530.00;;;10.28;68.97
6393;BME280;3229;42.674;23.282;2022-12-29T01:56:26;95525.81;;;10.27;68.77
6393;BME280;3229;42.674;23.282;2022-12-29T01:58:56;95529.31;;;10.26;69.01
6393;BME280;3229;42.674;23.282;2022-12-29T02:01:28;95524.19;;;10.26;69.03
6393;BME280;3229;42.674;23.282;2022-12-29T02:03:55;95520.00;;;10.25;68.96
6393;BME280;3229;42.674;23.282;2022-12-29T02:06:25;95520.00;;;10.25;69.16
6393;BME280;3229;42.674;23.282;2022-12-29T02:08:55;95519.88;;;10.27;69.12
6393;BME280;3229;42.674;23.282;2022-12-29T02:11:24;95510.59;;;10.26;68.94
6393;BME280;3229;42.674;23.282;2022-12-29T02:13:52;95512.34;;;10.25;68.80
6393;BME280;3229;42.674;23.282;2022-12-29T02:16:40;95511.31;;;10.28;68.80
6393;BME280;3229;42.674;23.282;2022-12-29T02:19:41;95513.03;;;10.27;68.71
6393;BME280;3229;42.674;23.282;2022-12-29T02:22:21;95510.59;;;10.26;68.91
6393;BME280;3229;42.674;23.282;2022-12-29T02:25:05;95513.16;;;10.26;68.88
6393;BME280;3229;42.674;23.282;2022-12-29T02:27:52;95510.72;;;10.24;68.79
6393;BME280;3229;42.674;23.282;2022-12-29T02:30:40;95509.06;;;10.23;68.88
6393;BME280;3229;42.674;23.282;2022-12-29T02:33:19;95511.72;;;10.22;68.90
6393;BME280;3229;42.674;23.282;2022-12-29T02:35:54;95505.78;;;10.21;68.95
6393;BME280;3229;42.674;23.282;2022-12-29T02:38:27;95515.91;;;10.23;68.95
6393;BME280;3229;42.674;23.282;2022-12-29T02:41:02;95515.22;;;10.21;69.04
6393;BME280;3229;42.674;23.282;2022-12-29T02:43:37;95518.56;;;10.21;69.10
6393;BME280;3229;42.674;23.282;2022-12-29T02:46:12;95519.38;;;10.22;68.71
6393;BME280;3229;42.674;23.282;2022-12-29T02:48:49;95521.13;;;10.21;68.95
6393;BME280;3229;42.674;23.282;2022-12-29T02:51:21;95515.09;;;10.22;69.42
6393;BME280;3229;42.674;23.282;2022-12-29T02:53:50;95515.09;;;10.22;68.97
6393;BME280;3229;42.674;23.282;2022-12-29T02:56:36;95511.72;;;10.22;68.72
6393;BME280;3229;42.674;23.282;2022-12-29T02:59:03;95509.06;;;10.23;69.12
6393;BME280;3229;42.674;23.282;2022-12-29T03:01:40;95507.31;;;10.24;68.85
6393;BME280;3229;42.674;23.282;2022-12-29T03:04:37;95498.75;;;10.25;68.73
6393;BME280;3229;42.674;23.282;2022-12-29T03:07:13;95494.44;;;10.25;68.92
6393;BME280;3229;42.674;23.282;2022-12-29T03:09:46;95501.41;;;10.23;68.63
6393;BME280;3229;42.674;23.282;2022-12-29T03:12:23;95489.34;;;10.25;68.82
6393;BME280;3229;42.674;23.282;2022-12-29T03:15:10;95488.53;;;10.25;69.01
6393;BME280;3229;42.674;23.282;2022-12-29T03:18:01;95493.63;;;10.25;69.03
6393;BME280;3229;42.674;23.282;2022-12-29T03:20:36;95484.31;;;10.24;68.83
6393;BME280;3229;42.674;23.282;2022-12-29T03:23:05;95484.41;;;10.22;68.97
6393;BME280;3229;42.674;23.282;2022-12-29T03:25:35;95486.97;;;10.22;69.04
6393;BME280;3229;42.674;23.282;2022-12-29T03:28:07;95489.06;;;10.17;69.01
6393;BME280;3229;42.674;23.282;2022-12-29T03:30:36;95486.63;;;10.16;69.05
6393;BME280;3229;42.674;23.282;2022-12-29T03:33:09;95497.19;;;10.11;69.18
6393;BME280;3229;42.674;23.282;2022-12-29T03:35:39;95498.34;;;10.07;69.42
6393;BME280;3229;42.674;23.282;2022-12-29T03:38:10;95500.31;;;10.03;69.19
6393;BME280;3229;42.674;23.282;2022-12-29T03:40:41;95467.19;;;9.79;69.39
6393;BME280;3229;42.674;23.282;2022-12-29T03:43:09;95490.78;;;9.94;69.37
6393;BME280;3229;42.674;23.282;2022-12-29T03:45:37;95496.25;;;9.90;69.41
6393;BME280;3229;42.674;23.282;2022-12-29T03:48:06;95493.09;;;9.86;69.71
6393;BME280;3229;42.674;23.282;2022-12-29T03:50:33;95499.34;;;9.82;69.54
6393;BME280;3229;42.674;23.282;2022-12-29T03:52:59;95490.75;;;9.72;69.77
6393;BME280;3229;42.674;23.282;2022-12-29T03:55:26;95500.25;;;9.70;69.71
6393;BME280;3229;42.674;23.282;2022-12-29T03:57:53;95504.56;;;9.69;69.72
6393;BME280;3229;42.674;23.282;2022-12-29T04:00:20;95510.69;;;9.67;69.70
6393;BME280;3229;42.674;23.282;2022-12-29T04:02:47;95511.16;;;9.61;69.86
6393;BME280;3229;42.674;23.282;2022-12-29T04:05:15;95517.06;;;9.61;69.69
6393;BME280;3229;42.674;23.282;2022-12-29T04:07:42;95512.50;;;9.53;69.90
6393;BME280;3229;42.674;23.282;2022-12-29T04:10:09;95520.16;;;9.53;70.00
6393;BME280;3229;42.674;23.282;2022-12-29T04:12:36;95510.28;;;9.49;70.02
6393;BME280;3229;42.674;23.282;2022-12-29T04:15:03;95508.78;;;9.46;70.07
6393;BME280;3229;42.674;23.282;2022-12-29T04:17:30;95509.69;;;9.45;70.29
6393;BME280;3229;42.674;23.282;2022-12-29T04:19:57;95514.22;;;9.42;70.19
6393;BME280;3229;42.674;23.282;2022-12-29T04:22:45;95512.69;;;9.39;70.15
6393;BME280;3229;42.674;23.282;2022-12-29T04:25:12;95510.47;;;9.35;70.23
6393;BME280;3229;42.674;23.282;2022-12-29T04:27:38;95515.69;;;9.33;70.03
6393;BME280;3229;42.674;23.282;2022-12-29T04:30:06;95515.78;;;9.32;70.47
6393;BME280;3229;42.674;23.282;2022-12-29T04:32:33;95522.84;;;9.28;70.18
6393;BME280;3229;42.674;23.282;2022-12-29T04:35:00;95521.44;;;9.24;70.47
6393;BME280;3229;42.674;23.282;2022-12-29T04:37:27;95528.41;;;9.22;70.56
6393;BME280;3229;42.674;23.282;2022-12-29T04:39:55;95531.97;;;9.19;70.54
6393;BME280;3229;42.674;23.282;2022-12-29T04:42:21;95531.28;;;9.17;70.61
6393;BME280;3229;42.674;23.282;2022-12-29T04:44:48;95541.69;;;9.14;70.49
6393;BME280;3229;42.674;23.282;2022-12-29T04:47:15;95530.88;;;9.11;70.58
6393;BME280;3229;42.674;23.282;2022-12-29T04:49:42;95535.97;;;9.11;70.70
6393;BME280;3229;42.674;23.282;2022-12-29T04:52:09;95543.75;;;9.09;70.54
6393;BME280;3229;42.674;23.282;2022-12-29T04:54:35;95548.06;;;9.09;70.76
6393;BME280;3229;42.674;23.282;2022-12-29T04:57:04;95474.13;;;8.59;70.52
6393;BME280;3229;42.674;23.282;2022-12-29T04:59:30;95550.13;;;9.03;70.75
6393;BME280;3229;42.674;23.282;2022-12-29T05:01:57;95550.00;;;9.05;70.55
6393;BME280;3229;42.674;23.282;2022-12-29T05:04:24;95541.13;;;8.98;70.93
6393;BME280;3229;42.674;23.282;2022-12-29T05:06:51;95544.09;;;9.04;70.77
6393;BME280;3229;42.674;23.282;2022-12-29T05:09:18;95550.00;;;9.05;70.65
6393;BME280;3229;42.674;23.282;2022-12-29T05:11:44;95510.69;;;8.84;70.71
6393;BME280;3229;42.674;23.282;2022-12-29T05:14:13;95556.50;;;9.09;70.64
6393;BME280;3229;42.674;23.282;2022-12-29T05:16:39;95559.88;;;9.10;70.70
6393;BME280;3229;42.674;23.282;2022-12-29T05:19:06;95554.69;;;9.11;70.62
6393;BME280;3229;42.674;23.282;2022-12-29T05:21:33;95557.94;;;9.13;70.68
6393;BME280;3229;42.674;23.282;2022-12-29T05:24:00;95556.91;;;9.16;70.73
6393;BME280;3229;42.674;23.282;2022-12-29T05:26:26;95548.66;;;9.12;70.43
6393;BME280;3229;42.674;23.282;2022-12-29T05:28:53;95552.31;;;9.21;70.48
6393;BME280;3229;42.674;23.282;2022-12-29T05:31:21;95541.03;;;9.23;70.51
6393;BME280;3229;42.674;23.282;2022-12-29T05:33:48;95550.22;;;9.26;70.25
6393;BME280;3229;42.674;23.282;2022-12-29T05:36:15;95548.38;;;9.28;70.29
6393;BME280;3229;42.674;23.282;2022-12-29T05:38:42;95546.53;;;9.30;70.35
6393;BME280;3229;42.674;23.282;2022-12-29T05:41:08;95553.19;;;9.33;70.35
6393;BME280;3229;42.674;23.282;2022-12-29T05:43:35;95550.38;;;9.36;70.31
6393;BME280;3229;42.674;23.282;2022-12-29T05:46:03;95552.84;;;9.37;70.40
6393;BME280;3229;42.674;23.282;2022-12-29T05:48:31;95556.09;;;9.39;70.24
6393;BME280;3229;42.674;23.282;2022-12-29T05:50:58;95555.06;;;9.42;70.18
6393;BME280;3229;42.674;23.282;2022-12-29T05:53:24;95559.13;;;9.44;70.16
6393;BME280;3229;42.674;23.282;2022-12-29T05:55:51;95558.91;;;9.47;70.11
6393;BME280;3229;42.674;23.282;2022-12-29T05:58:18;95562.28;;;9.48;69.87
6393;BME280;3229;42.674;23.282;2022-12-29T06:00:45;95566.38;;;9.50;70.16
6393;BME280;3229;42.674;23.282;2022-12-29T06:03:12;95550.53;;;9.45;70.05
6393;BME280;3229;42.674;23.282;2022-12-29T06:05:40;95563.38;;;9.57;69.92
6393;BME280;3229;42.674;23.282;2022-12-29T06:08:06;95570.00;;;9.59;69.77
6393;BME280;3229;42.674;23.282;2022-12-29T06:10:33;95565.59;;;9.61;69.87
6393;BME280;3229;42.674;23.282;2022-12-29T06:13:00;95568.75;;;9.65;69.82
6393;BME280;3229;42.674;23.282;2022-12-29T06:15:29;95576.19;;;9.68;69.78
6393;BME280;3229;42.674;23.282;2022-12-29T06:17:55;95577.59;;;9.72;69.70
6393;BME280;3229;42.674;23.282;2022-12-29T06:20:22;95578.06;;;9.77;69.74
6393;BME280;3229;42.674;23.282;2022-12-29T06:22:50;95571.00;;;9.80;69.45
6393;BME280;3229;42.674;23.282;2022-12-29T06:25:17;95573.22;;;9.85;69.66
6393;BME280;3229;42.674;23.282;2022-12-29T06:27:44;95572.91;;;9.90;69.45
6393;BME280;3229;42.674;23.282;2022-12-29T06:30:12;95574.56;;;10.02;68.92
6393;BME280;3229;42.674;23.282;2022-12-29T06:32:40;95563.06;;;10.19;68.90
6393;BME280;3229;42.674;23.282;2022-12-29T06:35:07;95491.69;;;9.82;68.64
6393;BME280;3229;42.674;23.282;2022-12-29T06:37:34;95574.19;;;10.53;68.08
6393;BME280;3229;42.674;23.282;2022-12-29T06:40:02;95581.88;;;10.75;67.83
6393;BME280;3229;42.674;23.282;2022-12-29T06:42:29;95584.06;;;10.91;67.72
6393;BME280;3229;42.674;23.282;2022-12-29T06:44:56;95584.16;;;11.01;67.82
6393;BME280;3229;42.674;23.282;2022-12-29T06:47:24;95572.88;;;11.03;67.49
6393;BME280;3229;42.674;23.282;2022-12-29T06:49:51;95582.31;;;11.14;67.61
6393;BME280;3229;42.674;23.282;2022-12-29T06:52:17;95578.69;;;11.17;67.60
6393;BME280;3229;42.674;23.282;2022-12-29T06:54:44;95578.75;;;11.26;67.46
6393;BME280;3229;42.674;23.282;2022-12-29T06:57:12;95583.53;;;11.31;67.09
6393;BME280;3229;42.674;23.282;2022-12-29T06:59:39;95574.53;;;11.48;66.98
6393;BME280;3229;42.674;23.282;2022-12-29T07:02:06;95578.28;;;11.76;66.61
6393;BME280;3229;42.674;23.282;2022-12-29T07:04:33;95588.41;;;12.10;66.26
6393;BME280;3229;42.674;23.282;2022-12-29T07:06:59;95586.56;;;12.42;65.91
6393;BME280;3229;42.674;23.282;2022-12-29T07:09:26;95584.66;;;13.05;90.32
6393;BME280;3229;42.674;23.282;2022-12-29T07:11:53;95582.38;;;13.91;92.10
6393;BME280;3229;42.674;23.282;2022-12-29T07:14:21;95583.81;;;14.52;87.86
6393;BME280;3229;42.674;23.282;2022-12-29T07:16:48;95594.34;;;14.96;84.02
6393;BME280;3229;42.674;23.282;2022-12-29T07:19:14;95585.75;;;15.32;81.18
6393;BME280;3229;42.674;23.282;2022-12-29T07:21:41;95582.13;;;15.71;78.58
6393;BME280;3229;42.674;23.282;2022-12-29T07:24:09;95584.72;;;16.07;76.46
6393;BME280;3229;42.674;23.282;2022-12-29T07:26:36;95588.53;;;16.46;74.40
6393;BME280;3229;42.674;23.282;2022-12-29T07:29:02;95591.03;;;16.82;72.71
6393;BME280;3229;42.674;23.282;2022-12-29T07:31:31;95597.16;;;17.15;71.05
6393;BME280;3229;42.674;23.282;2022-12-29T07:33:58;95589.66;;;17.46;69.66
6393;BME280;3229;42.674;23.282;2022-12-29T07:36:24;95582.13;;;17.77;68.43
6393;BME280;3229;42.674;23.282;2022-12-29T07:38:51;95588.63;;;18.06;67.00
6393;BME280;3229;42.674;23.282;2022-12-29T07:41:18;95589.28;;;18.33;65.92
6393;BME280;3229;42.674;23.282;2022-12-29T07:43:46;95586.31;;;18.60;64.88
6393;BME280;3229;42.674;23.282;2022-12-29T07:46:13;95585.50;;;18.76;64.05
6393;BME280;3229;42.674;23.282;2022-12-29T07:48:41;95591.66;;;18.83;63.28
6393;BME280;3229;42.674;23.282;2022-12-29T07:51:08;95591.78;;;18.82;63.08
6393;BME280;3229;42.674;23.282;2022-12-29T07:53:35;95593.59;;;18.81;62.64
6393;BME280;3229;42.674;23.282;2022-12-29T07:56:02;95593.09;;;18.77;62.32
6393;BME280;3229;42.674;23.282;2022-12-29T07:58:28;95597.97;;;18.72;61.98
6393;BME280;3229;42.674;23.282;2022-12-29T08:00:56;95597.47;;;18.69;61.56
6393;BME280;3229;42.674;23.282;2022-12-29T08:03:23;95600.72;;;18.63;61.26
6393;BME280;3229;42.674;23.282;2022-12-29T08:05:52;95581.94;;;18.61;60.29
6393;BME280;3229;42.674;23.282;2022-12-29T08:08:20;95613.28;;;18.98;59.56
6393;BME280;3229;42.674;23.282;2022-12-29T08:10:47;95612.56;;;19.21;58.46
6393;BME280;3229;42.674;23.282;2022-12-29T08:13:14;95608.06;;;19.15;58.13
6393;BME280;3229;42.674;23.282;2022-12-29T08:15:41;95598.84;;;19.04;57.92
6393;BME280;3229;42.674;23.282;2022-12-29T08:18:07;95600.34;;;18.98;57.78
6393;BME280;3229;42.674;23.282;2022-12-29T08:20:34;95603.44;;;18.94;58.03
6393;BME280;3229;42.674;23.282;2022-12-29T08:23:02;95607.19;;;18.91;57.81
6393;BME280;3229;42.674;23.282;2022-12-29T08:25:29;95599.56;;;18.90;57.81
6393;BME280;3229;42.674;23.282;2022-12-29T08:27:56;95608.00;;;18.92;57.46
6393;BME280;3229;42.674;23.282;2022-12-29T08:30:23;95601.50;;;18.88;57.20
6393;BME280;3229;42.674;23.282;2022-12-29T08:32:50;95598.06;;;18.95;56.94
6393;BME280;3229;42.674;23.282;2022-12-29T08:35:16;95602.88;;;19.15;56.13
6393;BME280;3229;42.674;23.282;2022-12-29T08:37:43;95598.97;;;19.50;55.41
6393;BME280;3229;42.674;23.282;2022-12-29T08:40:11;95603.03;;;19.84;54.22
6393;BME280;3229;42.674;23.282;2022-12-29T08:42:39;95593.06;;;19.95;53.66
6393;BME280;3229;42.674;23.282;2022-12-29T08:45:07;95600.63;;;19.82;53.62
6393;BME280;3229;42.674;23.282;2022-12-29T08:47:35;95602.34;;;19.59;53.87
6393;BME280;3229;42.674;23.282;2022-12-29T08:50:02;95608.59;;;19.41;54.11
6393;BME280;3229;42.674;23.282;2022-12-29T08:52:28;95607.72;;;19.26;54.33
6393;BME280;3229;42.674;23.282;2022-12-29T08:54:55;95606.59;;;19.12;54.36
6393;BME280;3229;42.674;23.282;2022-12-29T08:57:23;95599.22;;;19.01;54.60
6393;BME280;3229;42.674;23.282;2022-12-29T08:59:50;95593.38;;;18.91;54.70
6393;BME280;3229;42.674;23.282;2022-12-29T09:02:17;95586.63;;;18.73;54.70
6393;BME280;3229;42.674;23.282;2022-12-29T09:04:44;95590.84;;;18.66;54.68
6393;BME280;3229;42.674;23.282;2022-12-29T09:07:11;95588.78;;;18.53;54.59
6393;BME280;3229;42.674;23.282;2022-12-29T09:09:38;95581.31;;;18.42;54.84
6393;BME280;3229;42.674;23.282;2022-12-29T09:12:05;95582.63;;;18.30;54.82
6393;BME280;3229;42.674;23.282;2022-12-29T09:14:33;95580.22;;;18.20;55.00
6393;BME280;3229;42.674;23.282;2022-12-29T09:17:00;95581.19;;;18.11;55.10
6393;BME280;3229;42.674;23.282;2022-12-29T09:19:44;95579.59;;;18.02;55.18
6393;BME280;3229;42.674;23.282;2022-12-29T09:22:11;95572.63;;;17.94;55.09
6393;BME280;3229;42.674;23.282;2022-12-29T09:24:38;95568.56;;;17.84;55.34
6393;BME280;3229;42.674;23.282;2022-12-29T09:27:04;95574.38;;;17.86;55.25
6393;BME280;3229;42.674;23.282;2022-12-29T09:29:33;95569.88;;;17.79;55.28
6393;BME280;3229;42.674;23.282;2022-12-29T09:32:00;95564.19;;;17.76;55.09
6393;BME280;3229;42.674;23.282;2022-12-29T09:34:26;95567.06;;;17.73;55.19
6393;BME280;3229;42.674;23.282;2022-12-29T09:36:53;95563.34;;;17.67;55.06
6393;BME280;3229;42.674;23.282;2022-12-29T09:39:21;95559.16;;;17.66;55.11
6393;BME280;3229;42.674;23.282;2022-12-29T09:41:52;95556.72;;;17.65;55.12
6393;BME280;3229;42.674;23.282;2022-12-29T09:44:36;95544.25;;;17.60;54.99
6393;BME280;3229;42.674;23.282;2022-12-29T09:47:09;95550.72;;;17.64;54.83
6393;BME280;3229;42.674;23.282;2022-12-29T09:49:40;95551.53;;;17.65;55.05
6393;BME280;3229;42.674;23.282;2022-12-29T09:52:13;95529.69;;;17.51;55.01
6393;BME280;3229;42.674;23.282;2022-12-29T09:54:46;95534.88;;;17.51;55.11
6393;BME280;3229;42.674;23.282;2022-12-29T09:57:19;95536.47;;;17.52;55.13
6393;BME280;3229;42.674;23.282;2022-12-29T09:59:50;95536.47;;;17.52;55.14
6393;BME280;3229;42.674;23.282;2022-12-29T10:02:32;95529.53;;;17.36;55.18
6393;BME280;3229;42.674;23.282;2022-12-29T10:05:02;95533.69;;;17.29;55.38
6393;BME280;3229;42.674;23.282;2022-12-29T10:07:38;95528.50;;;17.21;55.47
6393;BME280;3229;42.674;23.282;2022-12-29T10:10:17;95524.91;;;17.14;55.49
6393;BME280;3229;42.674;23.282;2022-12-29T10:12:56;95519.13;;;17.12;55.44
6393;BME280;3229;42.674;23.282;2022-12-29T10:15:52;95522.97;;;17.08;55.67
6393;BME280;3229;42.674;23.282;2022-12-29T10:18:43;95518.13;;;17.13;55.48
6393;BME280;3229;42.674;23.282;2022-12-29T10:21:22;95480.00;;;16.98;55.47
6393;BME280;3229;42.674;23.282;2022-12-29T10:23:54;95509.47;;;17.30;55.12
6393;BME280;3229;42.674;23.282;2022-12-29T10:26:26;95509.63;;;17.37;55.03
6393;BME280;3229;42.674;23.282;2022-12-29T10:28:56;95504.47;;;17.37;54.88
6393;BME280;3229;42.674;23.282;2022-12-29T10:31:43;95501.41;;;17.41;54.89
6393;BME280;3229;42.674;23.282;2022-12-29T10:34:17;95499.13;;;17.46;54.90
6393;BME280;3229;42.674;23.282;2022-12-29T10:36:47;95503.03;;;17.50;54.80
6393;BME280;3229;42.674;23.282;2022-12-29T10:39:20;95501.72;;;17.46;54.95
6393;BME280;3229;42.674;23.282;2022-12-29T10:41:53;95489.28;;;17.42;54.99
6393;BME280;3229;42.674;23.282;2022-12-29T10:44:23;95491.88;;;17.42;54.95
6393;BME280;3229;42.674;23.282;2022-12-29T10:46:58;95490.25;;;17.41;54.85
6393;BME280;3229;42.674;23.282;2022-12-29T10:49:27;95480.06;;;17.39;54.81
6393;BME280;3229;42.674;23.282;2022-12-29T10:51:57;95485.56;;;17.44;54.75
6393;BME280;3229;42.674;23.282;2022-12-29T10:54:27;95477.47;;;17.39;54.68
6393;BME280;3229;42.674;23.282;2022-12-29T10:57:01;95476.34;;;17.42;54.74
6393;BME280;3229;42.674;23.282;2022-12-29T10:59:30;95481.84;;;17.39;54.75
6393;BME280;3229;42.674;23.282;2022-12-29T11:02:06;95471.81;;;17.36;54.77
6393;BME280;3229;42.674;23.282;2022-12-29T11:04:45;95473.09;;;17.40;54.74
6393;BME280;3229;42.674;23.282;2022-12-29T11:07:19;95462.28;;;17.36;54.77
6393;BME280;3229;42.674;23.282;2022-12-29T11:09:47;95460.81;;;17.34;54.76
6393;BME280;3229;42.674;23.282;2022-12-29T11:12:23;95455.97;;;17.30;54.76
6393;BME280;3229;42.674;23.282;2022-12-29T11:15:13;95456.31;;;17.27;54.82
6393;BME280;3229;42.674;23.282;2022-12-29T11:17:46;95452.56;;;17.22;55.02
6393;BME280;3229;42.674;23.282;2022-12-29T11:20:27;95445.63;;;17.14;55.04
6393;BME280;3229;42.674;23.282;2022-12-29T11:22:55;95452.56;;;17.14;54.93
6393;BME280;3229;42.674;23.282;2022-12-29T11:25:22;95457.25;;;17.10;55.05
6393;BME280;3229;42.674;23.282;2022-12-29T11:27:55;95443.03;;;17.06;55.03
6393;BME280;3229;42.674;23.282;2022-12-29T11:30:24;95444.94;;;17.04;55.30
6393;BME280;3229;42.674;23.282;2022-12-29T11:32:53;95448.50;;;17.03;55.06
6393;BME280;3229;42.674;23.282;2022-12-29T11:35:30;95446.91;;;17.02;55.03
6393;BME280;3229;42.674;23.282;2022-12-29T11:37:58;95442.53;;;17.02;54.94
6393;BME280;3229;42.674;23.282;2022-12-29T11:40:25;95443.16;;;17.04;55.00
6393;BME280;3229;42.674;23.282;2022-12-29T11:42:54;95435.28;;;17.06;54.96
6393;BME280;3229;42.674;23.282;2022-12-29T11:45:23;95433.63;;;17.05;54.75
6393;BME280;3229;42.674;23.282;2022-12-29T11:47:53;95372.50;;;16.63;54.62
6393;BME280;3229;42.674;23.282;2022-12-29T11:50:23;95400.16;;;16.79;54.70
6393;BME280;3229;42.674;23.282;2022-12-29T11:52:58;95412.47;;;16.85;54.98
6393;BME280;3229;42.674;23.282;2022-12-29T11:55:26;95412.94;;;16.80;55.02
6393;BME280;3229;42.674;23.282;2022-12-29T11:57:55;95435.03;;;16.83;55.17
6393;BME280;3229;42.674;23.282;2022-12-29T12:00:24;95442.63;;;16.76;55.24
6393;BME280;3229;42.674;23.282;2022-12-29T12:02:57;95431.00;;;16.72;55.42
6393;BME280;3229;42.674;23.282;2022-12-29T12:05:33;95426.41;;;16.66;55.55
6393;BME280;3229;42.674;23.282;2022-12-29T12:08:09;95428.84;;;16.68;55.52
6393;BME280;3229;42.674;23.282;2022-12-29T12:10:43;95425.13;;;16.70;55.54
6393;BME280;3229;42.674;23.282;2022-12-29T12:13:19;95427.44;;;16.73;55.52
6393;BME280;3229;42.674;23.282;2022-12-29T12:15:51;95418.03;;;16.64;55.49
6393;BME280;3229;42.674;23.282;2022-12-29T12:18:30;95427.06;;;16.68;55.51
6393;BME280;3229;42.674;23.282;2022-12-29T12:21:05;95424.81;;;16.65;55.41
6393;BME280;3229;42.674;23.282;2022-12-29T12:23:47;95413.97;;;16.62;55.67
6393;BME280;3229;42.674;23.282;2022-12-29T12:26:21;95417.53;;;16.61;55.80
6393;BME280;3229;42.674;23.282;2022-12-29T12:28:58;95408.16;;;16.60;55.78
6393;BME280;3229;42.674;23.282;2022-12-29T12:31:39;95405.91;;;16.65;55.64
6393;BME280;3229;42.674;23.282;2022-12-29T12:34:13;95406.25;;;16.70;55.62
6393;BME280;3229;42.674;23.282;2022-12-29T12:36:53;95336.94;;;16.33;55.45
6393;BME280;3229;42.674;23.282;2022-12-29T12:39:26;95406.59;;;16.75;55.48
6393;BME280;3229;42.674;23.282;2022-12-29T12:42:04;95402.69;;;16.71;55.57
6393;BME280;3229;42.674;23.282;2022-12-29T12:44:40;95402.22;;;16.67;55.72
6393;BME280;3229;42.674;23.282;2022-12-29T12:47:36;95406.06;;;16.55;55.86
6393;BME280;3229;42.674;23.282;2022-12-29T12:50:15;95396.66;;;16.46;56.00
6393;BME280;3229;42.674;23.282;2022-12-29T12:52:59;95390.50;;;16.39;56.21
6393;BME280;3229;42.674;23.282;2022-12-29T12:55:44;95398.72;;;16.34;56.09
6393;BME280;3229;42.674;23.282;2022-12-29T12:58:20;95396.91;;;16.26;56.36
6393;BME280;3229;42.674;23.282;2022-12-29T13:01:04;95397.84;;;16.17;56.62
6393;BME280;3229;42.674;23.282;2022-12-29T13:03:47;95403.47;;;16.13;56.61
6393;BME280;3229;42.674;23.282;2022-12-29T13:06:26;95401.34;;;16.08;56.80
6393;BME280;3229;42.674;23.282;2022-12-29T13:09:06;95398.44;;;16.03;56.74
6393;BME280;3229;42.674;23.282;2022-12-29T13:11:49;95399.88;;;16.05;56.78
6393;BME280;3229;42.674;23.282;2022-12-29T13:14:28;95336.00;;;15.65;56.70
6393;BME280;3229;42.674;23.282;2022-12-29T13:17:05;95403.75;;;16.10;56.61
6393;BME280;3229;42.674;23.282;2022-12-29T13:19:40;95400.38;;;16.09;56.61
6393;BME280;3229;42.674;23.282;2022-12-29T13:22:15;95395.50;;;16.06;56.43
6393;BME280;3229;42.674;23.282;2022-12-29T13:24:51;95402.31;;;16.07;56.55
6393;BME280;3229;42.674;23.282;2022-12-29T13:27:27;95397.75;;;16.01;56.57
6393;BME280;3229;42.674;23.282;2022-12-29T13:30:02;95404.69;;;16.00;56.58
6393;BME280;3229;42.674;23.282;2022-12-29T13:32:43;95407.44;;;15.99;56.70
6393;BME280;3229;42.674;23.282;2022-12-29T13:35:29;95418.84;;;15.96;56.78